sensor_id;sensor_type;location;lat;lon;timestamp;temperature;humidity
12436;DHT22;6282;51.440;6.938;2023-06-24T00:01:29;18.50;52.80
12436;DHT22;6282;51.440;6.938;2023-06-24T00:03:59;18.70;99.90
12436;DHT22;6282;51.440;6.938;2023-06-24T00:06:26;18.70;99.90
12436;DHT22;6282;51.440;6.938;2023-06-24T00:08:53;18.30;99.90
12436;DHT22;6282;51.440;6.938;2023-06-24T00:11:28;18.50;99.90
12436;DHT22;6282;51.440;6.938;2023-06-24T00:13:55;18.40;1.00
12436;DHT22;6282;51.440;6.938;2023-06-24T00:16:22;18.50;99.90
12436;DHT22;6282;51.440;6.938;2023-06-24T00:18:53;18.40;99.90
12436;DHT22;6282;51.440;6.938;2023-06-24T00:21:25;18.40;99.90
12436;DHT22;6282;51.440;6.938;2023-06-24T00:23:56;18.60;99.90
12436;DHT22;6282;51.440;6.938;2023-06-24T00:28:51;18.20;99.90
12436;DHT22;6282;51.440;6.938;2023-06-24T00:31:19;18.30;99.90
12436;DHT22;6282;51.440;6.938;2023-06-24T00:33:46;18.20;99.90
12436;DHT22;6282;51.440;6.938;2023-06-24T00:36:13;18.20;99.90
12436;DHT22;6282;51.440;6.938;2023-06-24T00:41:07;18.60;99.90
12436;DHT22;6282;51.440;6.938;2023-06-24T00:43:34;18.10;99.90
12436;DHT22;6282;51.440;6.938;2023-06-24T00:46:02;18.60;99.90
12436;DHT22;6282;51.440;6.938;2023-06-24T00:48:29;18.40;99.90
12436;DHT22;6282;51.440;6.938;2023-06-24T00:50:57;18.10;99.90
12436;DHT22;6282;51.440;6.938;2023-06-24T00:53:25;18.30;99.90
12436;DHT22;6282;51.440;6.938;2023-06-24T00:55:52;17.90;99.90
12436;DHT22;6282;51.440;6.938;2023-06-24T00:58:20;18.20;99.90
12436;DHT22;6282;51.440;6.938;2023-06-24T01:00:48;18.10;99.90
12436;DHT22;6282;51.440;6.938;2023-06-24T01:03:24;18.10;99.90
12436;DHT22;6282;51.440;6.938;2023-06-24T01:05:51;18.00;99.90
12436;DHT22;6282;51.440;6.938;2023-06-24T01:08:18;18.00;99.90
12436;DHT22;6282;51.440;6.938;2023-06-24T01:10:48;18.10;99.90
12436;DHT22;6282;51.440;6.938;2023-06-24T01:13:16;18.20;99.90
12436;DHT22;6282;51.440;6.938;2023-06-24T01:15:43;17.90;99.90
12436;DHT22;6282;51.440;6.938;2023-06-24T01:18:13;17.90;99.90
12436;DHT22;6282;51.440;6.938;2023-06-24T01:20:49;18.10;99.90
12436;DHT22;6282;51.440;6.938;2023-06-24T01:23:44;18.00;99.90
12436;DHT22;6282;51.440;6.938;2023-06-24T01:32:26;18.10;99.90
12436;DHT22;6282;51.440;6.938;2023-06-24T01:34:58;17.90;99.90
12436;DHT22;6282;51.440;6.938;2023-06-24T01:37:32;18.20;99.90
12436;DHT22;6282;51.440;6.938;2023-06-24T01:40:04;18.10;99.90
12436;DHT22;6282;51.440;6.938;2023-06-24T01:42:37;18.00;99.90
12436;DHT22;6282;51.440;6.938;2023-06-24T01:45:06;17.60;99.90
12436;DHT22;6282;51.440;6.938;2023-06-24T01:47:36;17.80;99.90
12436;DHT22;6282;51.440;6.938;2023-06-24T01:50:06;18.00;99.90
12436;DHT22;6282;51.440;6.938;2023-06-24T01:52:37;17.80;99.90
12436;DHT22;6282;51.440;6.938;2023-06-24T01:55:06;17.80;99.90
12436;DHT22;6282;51.440;6.938;2023-06-24T01:57:35;18.30;99.90
12436;DHT22;6282;51.440;6.938;2023-06-24T02:00:04;17.50;99.90
12436;DHT22;6282;51.440;6.938;2023-06-24T02:02:34;18.00;99.90
12436;DHT22;6282;51.440;6.938;2023-06-24T02:05:03;18.00;99.90
12436;DHT22;6282;51.440;6.938;2023-06-24T02:07:32;17.90;99.90
12436;DHT22;6282;51.440;6.938;2023-06-24T02:10:01;17.70;99.90
12436;DHT22;6282;51.440;6.938;2023-06-24T02:12:29;18.00;99.90
12436;DHT22;6282;51.440;6.938;2023-06-24T02:14:57;17.70;99.90
12436;DHT22;6282;51.440;6.938;2023-06-24T02:17:25;17.70;99.90
12436;DHT22;6282;51.440;6.938;2023-06-24T02:19:52;17.90;99.90
12436;DHT22;6282;51.440;6.938;2023-06-24T02:22:22;18.00;99.90
12436;DHT22;6282;51.440;6.938;2023-06-24T02:24:51;17.80;99.90
12436;DHT22;6282;51.440;6.938;2023-06-24T02:27:19;17.70;99.90
12436;DHT22;6282;51.440;6.938;2023-06-24T02:29:47;17.70;99.90
12436;DHT22;6282;51.440;6.938;2023-06-24T02:32:14;17.90;99.90
12436;DHT22;6282;51.440;6.938;2023-06-24T02:34:41;17.80;99.90
12436;DHT22;6282;51.440;6.938;2023-06-24T02:39:37;17.50;99.90
12436;DHT22;6282;51.440;6.938;2023-06-24T02:42:09;18.00;99.90
12436;DHT22;6282;51.440;6.938;2023-06-24T02:44:37;17.80;99.90
12436;DHT22;6282;51.440;6.938;2023-06-24T02:47:05;17.80;99.90
12436;DHT22;6282;51.440;6.938;2023-06-24T02:49:35;17.70;99.90
12436;DHT22;6282;51.440;6.938;2023-06-24T02:52:03;17.30;99.90
12436;DHT22;6282;51.440;6.938;2023-06-24T02:54:30;17.90;99.90
12436;DHT22;6282;51.440;6.938;2023-06-24T02:56:59;18.00;99.90
12436;DHT22;6282;51.440;6.938;2023-06-24T02:59:26;17.60;99.90
12436;DHT22;6282;51.440;6.938;2023-06-24T03:04:21;17.50;99.90
12436;DHT22;6282;51.440;6.938;2023-06-24T03:06:48;17.50;99.90
12436;DHT22;6282;51.440;6.938;2023-06-24T03:09:15;17.70;99.90
12436;DHT22;6282;51.440;6.938;2023-06-24T03:11:43;17.60;99.90
12436;DHT22;6282;51.440;6.938;2023-06-24T03:14:11;17.70;99.90
12436;DHT22;6282;51.440;6.938;2023-06-24T03:16:38;17.60;99.90
12436;DHT22;6282;51.440;6.938;2023-06-24T03:19:05;18.00;99.90
12436;DHT22;6282;51.440;6.938;2023-06-24T03:23:59;18.30;99.90
12436;DHT22;6282;51.440;6.938;2023-06-24T03:26:32;18.30;99.90
12436;DHT22;6282;51.440;6.938;2023-06-24T03:31:27;19.00;99.90
12436;DHT22;6282;51.440;6.938;2023-06-24T03:33:54;18.80;99.90
12436;DHT22;6282;51.440;6.938;2023-06-24T03:36:21;18.80;99.90
12436;DHT22;6282;51.440;6.938;2023-06-24T03:38:50;18.60;99.90
12436;DHT22;6282;51.440;6.938;2023-06-24T03:41:16;18.50;99.90
12436;DHT22;6282;51.440;6.938;2023-06-24T03:43:43;19.20;1.00
12436;DHT22;6282;51.440;6.938;2023-06-24T03:46:10;18.80;1.00
12436;DHT22;6282;51.440;6.938;2023-06-24T03:48:38;18.50;93.50
12436;DHT22;6282;51.440;6.938;2023-06-24T03:51:05;19.00;99.90
12436;DHT22;6282;51.440;6.938;2023-06-24T03:53:32;19.30;99.90
12436;DHT22;6282;51.440;6.938;2023-06-24T03:55:59;18.80;99.90
12436;DHT22;6282;51.440;6.938;2023-06-24T03:58:26;19.10;1.00
12436;DHT22;6282;51.440;6.938;2023-06-24T04:00:53;18.90;1.00
12436;DHT22;6282;51.440;6.938;2023-06-24T04:03:22;19.60;1.00
12436;DHT22;6282;51.440;6.938;2023-06-24T04:05:53;19.40;99.90
12436;DHT22;6282;51.440;6.938;2023-06-24T04:08:20;18.90;1.00
12436;DHT22;6282;51.440;6.938;2023-06-24T04:10:47;19.00;1.00
12436;DHT22;6282;51.440;6.938;2023-06-24T04:13:14;19.40;99.90
12436;DHT22;6282;51.440;6.938;2023-06-24T04:15:41;19.50;99.90
12436;DHT22;6282;51.440;6.938;2023-06-24T04:18:08;19.10;1.00
12436;DHT22;6282;51.440;6.938;2023-06-24T04:23:04;19.90;1.00
12436;DHT22;6282;51.440;6.938;2023-06-24T04:25:31;19.60;1.00
12436;DHT22;6282;51.440;6.938;2023-06-24T04:27:58;19.10;99.90
12436;DHT22;6282;51.440;6.938;2023-06-24T04:32:52;19.20;99.90
12436;DHT22;6282;51.440;6.938;2023-06-24T04:35:19;19.60;99.90
12436;DHT22;6282;51.440;6.938;2023-06-24T04:37:45;19.90;26.90
12436;DHT22;6282;51.440;6.938;2023-06-24T04:40:17;19.20;99.90
12436;DHT22;6282;51.440;6.938;2023-06-24T04:42:44;19.50;1.00
12436;DHT22;6282;51.440;6.938;2023-06-24T04:45:11;19.10;1.00
12436;DHT22;6282;51.440;6.938;2023-06-24T04:47:38;18.80;99.90
12436;DHT22;6282;51.440;6.938;2023-06-24T04:50:06;18.60;25.60
12436;DHT22;6282;51.440;6.938;2023-06-24T04:52:35;18.60;1.00
12436;DHT22;6282;51.440;6.938;2023-06-24T04:55:02;18.50;1.00
12436;DHT22;6282;51.440;6.938;2023-06-24T04:57:31;19.10;1.00
12436;DHT22;6282;51.440;6.938;2023-06-24T04:59:58;18.30;1.00
12436;DHT22;6282;51.440;6.938;2023-06-24T05:02:25;18.50;99.90
12436;DHT22;6282;51.440;6.938;2023-06-24T05:04:52;18.70;1.00
12436;DHT22;6282;51.440;6.938;2023-06-24T05:07:19;18.60;1.00
12436;DHT22;6282;51.440;6.938;2023-06-24T05:09:47;19.10;1.00
12436;DHT22;6282;51.440;6.938;2023-06-24T05:12:14;18.70;1.00
12436;DHT22;6282;51.440;6.938;2023-06-24T05:14:42;19.20;12.90
12436;DHT22;6282;51.440;6.938;2023-06-24T05:17:09;19.10;1.00
12436;DHT22;6282;51.440;6.938;2023-06-24T05:19:36;18.80;99.90
12436;DHT22;6282;51.440;6.938;2023-06-24T05:22:03;19.00;99.90
12436;DHT22;6282;51.440;6.938;2023-06-24T05:24:30;19.70;1.00
12436;DHT22;6282;51.440;6.938;2023-06-24T05:27:03;19.70;76.20
12436;DHT22;6282;51.440;6.938;2023-06-24T05:29:30;19.20;1.00
12436;DHT22;6282;51.440;6.938;2023-06-24T05:31:58;19.20;99.90
12436;DHT22;6282;51.440;6.938;2023-06-24T05:34:25;19.40;99.90
12436;DHT22;6282;51.440;6.938;2023-06-24T05:36:52;19.80;99.90
12436;DHT22;6282;51.440;6.938;2023-06-24T05:39:20;19.80;99.90
12436;DHT22;6282;51.440;6.938;2023-06-24T05:41:47;19.60;14.70
12436;DHT22;6282;51.440;6.938;2023-06-24T05:44:14;19.50;1.00
12436;DHT22;6282;51.440;6.938;2023-06-24T05:46:43;18.90;1.00
12436;DHT22;6282;51.440;6.938;2023-06-24T05:49:11;19.70;1.00
12436;DHT22;6282;51.440;6.938;2023-06-24T05:51:38;19.40;1.00
12436;DHT22;6282;51.440;6.938;2023-06-24T05:54:05;19.60;99.90
12436;DHT22;6282;51.440;6.938;2023-06-24T05:56:33;19.90;99.90
12436;DHT22;6282;51.440;6.938;2023-06-24T05:59:01;20.30;99.90
12436;DHT22;6282;51.440;6.938;2023-06-24T06:03:55;20.50;29.80
12436;DHT22;6282;51.440;6.938;2023-06-24T06:06:23;20.00;1.00
12436;DHT22;6282;51.440;6.938;2023-06-24T06:08:50;21.20;62.40
12436;DHT22;6282;51.440;6.938;2023-06-24T06:11:17;20.50;99.90
12436;DHT22;6282;51.440;6.938;2023-06-24T06:13:44;20.90;99.90
12436;DHT22;6282;51.440;6.938;2023-06-24T06:16:11;20.70;1.00
12436;DHT22;6282;51.440;6.938;2023-06-24T06:18:37;20.70;1.00
12436;DHT22;6282;51.440;6.938;2023-06-24T06:21:04;21.00;1.00
12436;DHT22;6282;51.440;6.938;2023-06-24T06:23:32;20.60;1.00
12436;DHT22;6282;51.440;6.938;2023-06-24T06:25:59;20.80;1.00
12436;DHT22;6282;51.440;6.938;2023-06-24T06:30:53;21.00;99.90
12436;DHT22;6282;51.440;6.938;2023-06-24T06:33:22;20.70;99.90
12436;DHT22;6282;51.440;6.938;2023-06-24T06:38:16;20.60;99.90
12436;DHT22;6282;51.440;6.938;2023-06-24T06:40:44;20.90;99.90
12436;DHT22;6282;51.440;6.938;2023-06-24T06:43:11;20.70;99.90
12436;DHT22;6282;51.440;6.938;2023-06-24T06:48:05;21.30;1.00
12436;DHT22;6282;51.440;6.938;2023-06-24T06:50:34;21.40;99.90
12436;DHT22;6282;51.440;6.938;2023-06-24T06:53:02;21.20;1.00
12436;DHT22;6282;51.440;6.938;2023-06-24T06:55:29;20.70;99.90
12436;DHT22;6282;51.440;6.938;2023-06-24T06:57:57;21.00;99.90
12436;DHT22;6282;51.440;6.938;2023-06-24T07:02:51;21.40;1.00
12436;DHT22;6282;51.440;6.938;2023-06-24T07:05:18;22.00;1.00
12436;DHT22;6282;51.440;6.938;2023-06-24T07:07:46;22.80;1.00
12436;DHT22;6282;51.440;6.938;2023-06-24T07:10:15;23.00;99.90
12436;DHT22;6282;51.440;6.938;2023-06-24T07:12:42;24.00;90.30
12436;DHT22;6282;51.440;6.938;2023-06-24T07:15:11;24.20;1.00
12436;DHT22;6282;51.440;6.938;2023-06-24T07:17:40;24.10;1.00
12436;DHT22;6282;51.440;6.938;2023-06-24T07:20:07;25.80;1.00
12436;DHT22;6282;51.440;6.938;2023-06-24T07:22:34;26.00;1.00
12436;DHT22;6282;51.440;6.938;2023-06-24T07:25:01;25.60;1.00
12436;DHT22;6282;51.440;6.938;2023-06-24T07:27:28;25.80;99.90
12436;DHT22;6282;51.440;6.938;2023-06-24T07:29:55;27.40;99.90
12436;DHT22;6282;51.440;6.938;2023-06-24T07:32:23;27.70;1.00
12436;DHT22;6282;51.440;6.938;2023-06-24T07:34:49;29.00;99.90
12436;DHT22;6282;51.440;6.938;2023-06-24T07:37:16;28.80;99.90
12436;DHT22;6282;51.440;6.938;2023-06-24T07:39:43;27.70;99.90
12436;DHT22;6282;51.440;6.938;2023-06-24T07:44:37;29.10;54.10
12436;DHT22;6282;51.440;6.938;2023-06-24T07:47:05;29.40;68.90
12436;DHT22;6282;51.440;6.938;2023-06-24T07:49:34;29.70;75.00
12436;DHT22;6282;51.440;6.938;2023-06-24T07:52:00;30.10;1.00
12436;DHT22;6282;51.440;6.938;2023-06-24T07:59:22;30.60;1.00
12436;DHT22;6282;51.440;6.938;2023-06-24T08:01:49;29.10;1.00
12436;DHT22;6282;51.440;6.938;2023-06-24T08:04:16;30.90;1.00
12436;DHT22;6282;51.440;6.938;2023-06-24T08:06:45;30.90;1.00
12436;DHT22;6282;51.440;6.938;2023-06-24T08:09:12;30.40;1.00
12436;DHT22;6282;51.440;6.938;2023-06-24T08:11:38;31.00;1.00
12436;DHT22;6282;51.440;6.938;2023-06-24T08:14:05;31.40;1.00
12436;DHT22;6282;51.440;6.938;2023-06-24T08:16:32;29.70;1.00
12436;DHT22;6282;51.440;6.938;2023-06-24T08:18:59;31.20;1.00
12436;DHT22;6282;51.440;6.938;2023-06-24T08:21:26;32.10;1.00
12436;DHT22;6282;51.440;6.938;2023-06-24T08:23:54;32.90;1.00
12436;DHT22;6282;51.440;6.938;2023-06-24T08:32:46;34.70;99.90
12436;DHT22;6282;51.440;6.938;2023-06-24T08:35:13;35.00;99.90
12436;DHT22;6282;51.440;6.938;2023-06-24T08:37:40;34.70;99.90
12436;DHT22;6282;51.440;6.938;2023-06-24T08:40:09;35.10;99.90
12436;DHT22;6282;51.440;6.938;2023-06-24T08:42:36;35.20;99.90
12436;DHT22;6282;51.440;6.938;2023-06-24T08:45:03;35.40;99.90
12436;DHT22;6282;51.440;6.938;2023-06-24T08:47:30;35.10;99.90
12436;DHT22;6282;51.440;6.938;2023-06-24T08:50:02;35.50;99.90
12436;DHT22;6282;51.440;6.938;2023-06-24T08:52:32;35.20;99.90
12436;DHT22;6282;51.440;6.938;2023-06-24T08:54:59;34.90;99.90
12436;DHT22;6282;51.440;6.938;2023-06-24T08:57:29;36.30;99.90
12436;DHT22;6282;51.440;6.938;2023-06-24T08:59:55;35.80;99.90
12436;DHT22;6282;51.440;6.938;2023-06-24T09:02:23;36.20;99.90
12436;DHT22;6282;51.440;6.938;2023-06-24T09:04:51;36.60;99.90
12436;DHT22;6282;51.440;6.938;2023-06-24T09:07:25;36.70;99.90
12436;DHT22;6282;51.440;6.938;2023-06-24T09:09:53;36.90;99.90
12436;DHT22;6282;51.440;6.938;2023-06-24T09:12:20;36.40;99.90
12436;DHT22;6282;51.440;6.938;2023-06-24T09:14:49;35.30;99.90
12436;DHT22;6282;51.440;6.938;2023-06-24T09:17:17;35.40;99.90
12436;DHT22;6282;51.440;6.938;2023-06-24T09:19:44;35.40;99.90
12436;DHT22;6282;51.440;6.938;2023-06-24T09:22:11;34.00;99.90
12436;DHT22;6282;51.440;6.938;2023-06-24T09:24:43;34.20;99.90
12436;DHT22;6282;51.440;6.938;2023-06-24T09:27:12;33.90;99.90
12436;DHT22;6282;51.440;6.938;2023-06-24T09:29:41;34.60;99.90
12436;DHT22;6282;51.440;6.938;2023-06-24T09:32:10;34.80;99.90
12436;DHT22;6282;51.440;6.938;2023-06-24T09:34:37;35.10;99.90
12436;DHT22;6282;51.440;6.938;2023-06-24T09:37:04;33.70;99.90
12436;DHT22;6282;51.440;6.938;2023-06-24T09:39:36;34.50;99.90
12436;DHT22;6282;51.440;6.938;2023-06-24T09:42:04;35.90;99.90
12436;DHT22;6282;51.440;6.938;2023-06-24T09:44:33;33.90;99.90
12436;DHT22;6282;51.440;6.938;2023-06-24T09:47:00;33.50;99.90
12436;DHT22;6282;51.440;6.938;2023-06-24T09:49:29;33.90;99.90
12436;DHT22;6282;51.440;6.938;2023-06-24T09:51:56;34.10;99.90
12436;DHT22;6282;51.440;6.938;2023-06-24T09:54:26;34.00;99.90
12436;DHT22;6282;51.440;6.938;2023-06-24T09:56:54;32.40;94.10
12436;DHT22;6282;51.440;6.938;2023-06-24T09:59:23;31.50;95.20
12436;DHT22;6282;51.440;6.938;2023-06-24T10:01:53;30.70;94.90
12436;DHT22;6282;51.440;6.938;2023-06-24T10:04:20;30.40;93.40
12436;DHT22;6282;51.440;6.938;2023-06-24T10:06:50;30.60;92.10
12436;DHT22;6282;51.440;6.938;2023-06-24T10:09:17;29.80;93.10
12436;DHT22;6282;51.440;6.938;2023-06-24T10:11:46;29.50;72.50
12436;DHT22;6282;51.440;6.938;2023-06-24T10:14:14;29.70;87.90
12436;DHT22;6282;51.440;6.938;2023-06-24T10:19:08;29.60;77.50
12436;DHT22;6282;51.440;6.938;2023-06-24T10:21:45;28.40;88.30
12436;DHT22;6282;51.440;6.938;2023-06-24T10:24:31;28.80;90.60
12436;DHT22;6282;51.440;6.938;2023-06-24T10:27:02;28.00;99.00
12436;DHT22;6282;51.440;6.938;2023-06-24T10:29:34;27.30;86.20
12436;DHT22;6282;51.440;6.938;2023-06-24T10:32:03;27.70;99.90
12436;DHT22;6282;51.440;6.938;2023-06-24T10:34:34;27.80;99.90
12436;DHT22;6282;51.440;6.938;2023-06-24T10:37:03;27.30;99.90
12436;DHT22;6282;51.440;6.938;2023-06-24T10:39:48;27.00;99.90
12436;DHT22;6282;51.440;6.938;2023-06-24T10:42:41;26.40;99.90
12436;DHT22;6282;51.440;6.938;2023-06-24T10:45:19;26.40;99.90
12436;DHT22;6282;51.440;6.938;2023-06-24T10:47:48;27.00;99.90
12436;DHT22;6282;51.440;6.938;2023-06-24T10:50:18;27.10;99.90
12436;DHT22;6282;51.440;6.938;2023-06-24T10:52:46;27.00;99.90
12436;DHT22;6282;51.440;6.938;2023-06-24T10:55:15;27.20;99.90
12436;DHT22;6282;51.440;6.938;2023-06-24T10:57:43;27.30;99.90
12436;DHT22;6282;51.440;6.938;2023-06-24T11:00:11;27.50;98.90
12436;DHT22;6282;51.440;6.938;2023-06-24T11:02:38;27.30;99.90
12436;DHT22;6282;51.440;6.938;2023-06-24T11:05:05;27.10;99.90
12436;DHT22;6282;51.440;6.938;2023-06-24T11:07:33;29.90;91.80
12436;DHT22;6282;51.440;6.938;2023-06-24T11:10:05;27.50;99.90
12436;DHT22;6282;51.440;6.938;2023-06-24T11:12:35;27.70;99.90
12436;DHT22;6282;51.440;6.938;2023-06-24T11:15:04;27.30;99.90
12436;DHT22;6282;51.440;6.938;2023-06-24T11:17:33;27.30;95.90
12436;DHT22;6282;51.440;6.938;2023-06-24T11:19:59;27.20;96.10
12436;DHT22;6282;51.440;6.938;2023-06-24T11:22:27;27.10;90.00
12436;DHT22;6282;51.440;6.938;2023-06-24T11:24:54;27.70;96.50
12436;DHT22;6282;51.440;6.938;2023-06-24T11:27:25;27.00;95.00
12436;DHT22;6282;51.440;6.938;2023-06-24T11:29:54;27.90;98.80
12436;DHT22;6282;51.440;6.938;2023-06-24T11:32:21;27.40;97.40
12436;DHT22;6282;51.440;6.938;2023-06-24T11:34:48;27.10;99.20
12436;DHT22;6282;51.440;6.938;2023-06-24T11:37:17;27.40;91.30
12436;DHT22;6282;51.440;6.938;2023-06-24T11:39:44;28.10;99.90
12436;DHT22;6282;51.440;6.938;2023-06-24T11:42:11;27.10;99.90
12436;DHT22;6282;51.440;6.938;2023-06-24T11:44:41;28.20;99.90
12436;DHT22;6282;51.440;6.938;2023-06-24T11:47:10;27.70;99.10
12436;DHT22;6282;51.440;6.938;2023-06-24T11:49:50;27.30;99.90
12436;DHT22;6282;51.440;6.938;2023-06-24T11:52:18;27.60;99.90
12436;DHT22;6282;51.440;6.938;2023-06-24T11:54:44;27.30;99.90
12436;DHT22;6282;51.440;6.938;2023-06-24T11:57:13;27.10;99.90
12436;DHT22;6282;51.440;6.938;2023-06-24T11:59:40;27.90;99.90
12436;DHT22;6282;51.440;6.938;2023-06-24T12:02:13;27.90;99.90
12436;DHT22;6282;51.440;6.938;2023-06-24T12:04:43;28.00;99.90
12436;DHT22;6282;51.440;6.938;2023-06-24T12:07:11;28.40;99.90
12436;DHT22;6282;51.440;6.938;2023-06-24T12:09:38;27.70;99.90
12436;DHT22;6282;51.440;6.938;2023-06-24T12:12:05;28.10;99.90
12436;DHT22;6282;51.440;6.938;2023-06-24T12:14:32;27.50;99.90
12436;DHT22;6282;51.440;6.938;2023-06-24T12:17:00;27.70;99.90
12436;DHT22;6282;51.440;6.938;2023-06-24T12:19:28;27.50;99.90
12436;DHT22;6282;51.440;6.938;2023-06-24T12:21:55;28.30;99.90
12436;DHT22;6282;51.440;6.938;2023-06-24T12:24:23;27.40;99.90
12436;DHT22;6282;51.440;6.938;2023-06-24T12:29:19;27.20;99.90
12436;DHT22;6282;51.440;6.938;2023-06-24T12:31:47;27.70;99.90
12436;DHT22;6282;51.440;6.938;2023-06-24T12:34:14;27.60;96.80
12436;DHT22;6282;51.440;6.938;2023-06-24T12:36:43;28.10;99.90
12436;DHT22;6282;51.440;6.938;2023-06-24T12:39:09;27.70;99.90
12436;DHT22;6282;51.440;6.938;2023-06-24T12:41:37;27.40;99.90
12436;DHT22;6282;51.440;6.938;2023-06-24T12:44:05;27.30;99.90
12436;DHT22;6282;51.440;6.938;2023-06-24T12:46:32;27.00;99.90
12436;DHT22;6282;51.440;6.938;2023-06-24T12:49:00;28.00;99.90
12436;DHT22;6282;51.440;6.938;2023-06-24T12:51:27;28.20;99.90
12436;DHT22;6282;51.440;6.938;2023-06-24T12:53:55;27.80;99.90
12436;DHT22;6282;51.440;6.938;2023-06-24T12:56:22;27.40;99.90
12436;DHT22;6282;51.440;6.938;2023-06-24T12:58:49;28.20;99.90
12436;DHT22;6282;51.440;6.938;2023-06-24T13:01:16;27.60;99.90
12436;DHT22;6282;51.440;6.938;2023-06-24T13:06:10;28.20;99.90
12436;DHT22;6282;51.440;6.938;2023-06-24T13:08:36;28.50;99.90
12436;DHT22;6282;51.440;6.938;2023-06-24T13:11:05;28.00;99.90
12436;DHT22;6282;51.440;6.938;2023-06-24T13:15:58;28.00;99.90
12436;DHT22;6282;51.440;6.938;2023-06-24T13:18:25;27.80;99.90
12436;DHT22;6282;51.440;6.938;2023-06-24T13:20:52;27.60;99.90
12436;DHT22;6282;51.440;6.938;2023-06-24T13:23:19;28.50;99.10
12436;DHT22;6282;51.440;6.938;2023-06-24T13:25:46;28.00;99.90
12436;DHT22;6282;51.440;6.938;2023-06-24T13:28:14;28.20;90.10
12436;DHT22;6282;51.440;6.938;2023-06-24T13:33:08;28.10;96.30
12436;DHT22;6282;51.440;6.938;2023-06-24T13:35:35;28.10;79.00
12436;DHT22;6282;51.440;6.938;2023-06-24T13:40:30;28.30;91.90
12436;DHT22;6282;51.440;6.938;2023-06-24T13:42:57;29.00;90.40
12436;DHT22;6282;51.440;6.938;2023-06-24T13:45:26;28.60;84.30
12436;DHT22;6282;51.440;6.938;2023-06-24T13:47:52;28.10;87.00
12436;DHT22;6282;51.440;6.938;2023-06-24T13:50:20;28.50;85.90
12436;DHT22;6282;51.440;6.938;2023-06-24T13:52:47;28.40;79.90
12436;DHT22;6282;51.440;6.938;2023-06-24T14:00:09;28.10;75.30
12436;DHT22;6282;51.440;6.938;2023-06-24T14:02:38;28.30;52.60
12436;DHT22;6282;51.440;6.938;2023-06-24T14:05:06;29.00;71.80
12436;DHT22;6282;51.440;6.938;2023-06-24T14:07:33;28.30;68.70
12436;DHT22;6282;51.440;6.938;2023-06-24T14:10:00;28.30;52.60
12436;DHT22;6282;51.440;6.938;2023-06-24T14:12:27;28.10;65.60
12436;DHT22;6282;51.440;6.938;2023-06-24T14:14:54;28.20;64.70
12436;DHT22;6282;51.440;6.938;2023-06-24T14:17:21;28.30;64.80
12436;DHT22;6282;51.440;6.938;2023-06-24T14:19:49;28.40;63.20
12436;DHT22;6282;51.440;6.938;2023-06-24T14:22:16;29.10;64.90
12436;DHT22;6282;51.440;6.938;2023-06-24T14:24:43;29.00;63.90
12436;DHT22;6282;51.440;6.938;2023-06-24T14:27:10;29.10;76.00
12436;DHT22;6282;51.440;6.938;2023-06-24T14:29:37;28.10;63.50
12436;DHT22;6282;51.440;6.938;2023-06-24T14:32:05;28.00;85.90
12436;DHT22;6282;51.440;6.938;2023-06-24T14:34:32;28.70;62.20
12436;DHT22;6282;51.440;6.938;2023-06-24T14:37:00;28.60;85.20
12436;DHT22;6282;51.440;6.938;2023-06-24T14:39:27;28.40;63.00
12436;DHT22;6282;51.440;6.938;2023-06-24T14:41:55;28.20;75.30
12436;DHT22;6282;51.440;6.938;2023-06-24T14:44:21;27.70;59.70
12436;DHT22;6282;51.440;6.938;2023-06-24T14:46:48;28.20;60.20
12436;DHT22;6282;51.440;6.938;2023-06-24T14:49:16;28.60;52.60
12436;DHT22;6282;51.440;6.938;2023-06-24T14:54:11;28.50;52.20
12436;DHT22;6282;51.440;6.938;2023-06-24T14:56:38;28.80;45.20
12436;DHT22;6282;51.440;6.938;2023-06-24T14:59:05;28.70;39.90
12436;DHT22;6282;51.440;6.938;2023-06-24T15:06:26;28.40;28.60
12436;DHT22;6282;51.440;6.938;2023-06-24T15:08:53;28.60;30.70
12436;DHT22;6282;51.440;6.938;2023-06-24T15:11:21;28.70;27.10
12436;DHT22;6282;51.440;6.938;2023-06-24T15:13:48;29.30;55.40
12436;DHT22;6282;51.440;6.938;2023-06-24T15:16:15;29.30;31.50
12436;DHT22;6282;51.440;6.938;2023-06-24T15:18:46;28.90;30.10
12436;DHT22;6282;51.440;6.938;2023-06-24T15:21:14;29.20;32.50
12436;DHT22;6282;51.440;6.938;2023-06-24T15:23:41;28.80;52.90
12436;DHT22;6282;51.440;6.938;2023-06-24T15:26:08;29.10;30.10
12436;DHT22;6282;51.440;6.938;2023-06-24T15:28:37;28.80;30.70
12436;DHT22;6282;51.440;6.938;2023-06-24T15:31:04;29.30;30.00
12436;DHT22;6282;51.440;6.938;2023-06-24T15:33:31;29.10;30.00
12436;DHT22;6282;51.440;6.938;2023-06-24T15:35:57;29.40;28.40
12436;DHT22;6282;51.440;6.938;2023-06-24T15:38:25;29.90;28.80
12436;DHT22;6282;51.440;6.938;2023-06-24T15:40:52;29.50;26.00
12436;DHT22;6282;51.440;6.938;2023-06-24T15:43:19;29.40;25.80
12436;DHT22;6282;51.440;6.938;2023-06-24T15:45:47;28.90;30.10
12436;DHT22;6282;51.440;6.938;2023-06-24T15:48:14;29.00;27.90
12436;DHT22;6282;51.440;6.938;2023-06-24T15:50:41;29.30;79.10
12436;DHT22;6282;51.440;6.938;2023-06-24T15:53:08;28.90;26.80
12436;DHT22;6282;51.440;6.938;2023-06-24T15:55:35;28.90;26.30
12436;DHT22;6282;51.440;6.938;2023-06-24T16:00:29;29.10;29.60
12436;DHT22;6282;51.440;6.938;2023-06-24T16:02:57;28.90;28.30
12436;DHT22;6282;51.440;6.938;2023-06-24T16:05:24;28.60;26.40
12436;DHT22;6282;51.440;6.938;2023-06-24T16:07:51;29.30;34.00
12436;DHT22;6282;51.440;6.938;2023-06-24T16:12:45;28.80;27.00
12436;DHT22;6282;51.440;6.938;2023-06-24T16:15:12;28.60;23.30
12436;DHT22;6282;51.440;6.938;2023-06-24T16:17:39;28.70;26.80
12436;DHT22;6282;51.440;6.938;2023-06-24T16:20:08;28.70;31.90
12436;DHT22;6282;51.440;6.938;2023-06-24T16:22:39;28.50;28.60
12436;DHT22;6282;51.440;6.938;2023-06-24T16:25:07;28.00;25.80
12436;DHT22;6282;51.440;6.938;2023-06-24T16:27:34;28.00;26.60
12436;DHT22;6282;51.440;6.938;2023-06-24T16:30:01;28.70;26.40
12436;DHT22;6282;51.440;6.938;2023-06-24T16:32:28;28.90;26.00
12436;DHT22;6282;51.440;6.938;2023-06-24T16:34:55;28.40;25.20
12436;DHT22;6282;51.440;6.938;2023-06-24T16:37:23;28.70;19.60
12436;DHT22;6282;51.440;6.938;2023-06-24T16:39:50;28.60;30.20
12436;DHT22;6282;51.440;6.938;2023-06-24T16:42:17;28.40;28.10
12436;DHT22;6282;51.440;6.938;2023-06-24T16:44:44;28.90;30.70
12436;DHT22;6282;51.440;6.938;2023-06-24T16:47:12;29.00;28.40
12436;DHT22;6282;51.440;6.938;2023-06-24T16:49:39;28.50;18.40
12436;DHT22;6282;51.440;6.938;2023-06-24T16:52:06;28.30;73.10
12436;DHT22;6282;51.440;6.938;2023-06-24T16:54:34;28.40;19.40
12436;DHT22;6282;51.440;6.938;2023-06-24T16:57:01;28.80;30.90
12436;DHT22;6282;51.440;6.938;2023-06-24T16:59:28;28.30;27.80
12436;DHT22;6282;51.440;6.938;2023-06-24T17:04:22;28.60;31.20
12436;DHT22;6282;51.440;6.938;2023-06-24T17:06:49;28.60;33.10
12436;DHT22;6282;51.440;6.938;2023-06-24T17:09:16;29.20;33.50
12436;DHT22;6282;51.440;6.938;2023-06-24T17:11:44;28.40;31.70
12436;DHT22;6282;51.440;6.938;2023-06-24T17:14:11;28.60;32.30
12436;DHT22;6282;51.440;6.938;2023-06-24T17:16:38;28.20;40.20
12436;DHT22;6282;51.440;6.938;2023-06-24T17:19:06;28.10;34.20